MSC Divina — 3FFA5 — position and weather

sailwx.info

Track history (hours):
 
Tides and Currents Weather Stations Pressure Air Temp Water Temp Dewpoint Dewpoint Depression Visibility Wind Speed Wind Dir Waves Ship Positions

MSC Divina

Last reported at 2016-Jun-30 00:03 UTC. Time now 2016-Jun-30 17:48 UTC.
Position N 20°43' W 086°51'.

Length 333 m; draft 8.6 m.

Type: Passenger vessel. MMSI: 373178000.

Date/timePositionNaut miles runAvg speedWind from/ knotsBaromVisibWave heightAir tempDewpointWater temp
2016-Jun-30 00:03N 20°43' W 086°51'1020.5
2016-Jun-29 23:33N 20°35' W 086°57'4 4.0
2016-Jun-29 22:32N 20°31' W 086°57'0 0.0
2016-Jun-29 21:29N 20°31' W 086°57'0 0.0
2016-Jun-29 20:32N 20°31' W 086°57'0 0.0
2016-Jun-29 19:32N 20°31' W 086°57'0 0.0
2016-Jun-29 18:32N 20°31' W 086°57'0 0.0
2016-Jun-29 17:32N 20°31' W 086°57'0 0.0
2016-Jun-29 16:32N 20°31' W 086°57'0 0.0
2016-Jun-29 15:32N 20°31' W 086°57'0 0.0
2016-Jun-29 14:33N 20°31' W 086°57'9 8.6
2016-Jun-29 13:34N 20°38' W 086°53'  
2016-Jun-26 00:26N 25°39' W 079°60'910.3
2016-Jun-25 23:33N 25°45' W 080°07'4 3.5
2016-Jun-25 22:30N 25°47' W 080°10'0 0.0
2016-Jun-25 21:30N 25°47' W 080°10'0 0.0
2016-Jun-25 20:27N 25°47' W 080°10'0 0.0
2016-Jun-25 19:30N 25°47' W 080°10'0 0.0
2016-Jun-25 18:33N 25°47' W 080°10'0 0.0
2016-Jun-25 17:30N 25°47' W 080°10'0 0.0
2016-Jun-25 13:32N 25°47' W 080°10'0 0.0
2016-Jun-25 12:08N 25°47' W 080°10'0 0.5
2016-Jun-25 11:33N 25°47' W 080°11'7 7.3
2016-Jun-25 10:33N 25°47' W 080°03'1212.4
2016-Jun-25 09:33N 25°52' W 079°50'1211.8
2016-Jun-25 08:33N 25°58' W 079°39'1818.2
2016-Jun-25 07:33N 26°06' W 079°21'  
2016-Jun-22 21:20N 18°36' W 066°15'1114.6
2016-Jun-22 20:33N 18°27' W 066°07'0 0.4
2016-Jun-22 19:32N 18°28' W 066°07'0 0.0
2016-Jun-22 18:31N 18°28' W 066°07'0 0.0
2016-Jun-22 17:30N 18°28' W 066°07'0 0.0
2016-Jun-22 16:33N 18°28' W 066°07'0 0.0
2016-Jun-22 15:27N 18°28' W 066°07'0 0.0
2016-Jun-22 14:32N 18°28' W 066°07'0 0.0
2016-Jun-22 13:29N 18°28' W 066°07'0 0.0
2016-Jun-22 12:32N 18°28' W 066°07'0 0.0
2016-Jun-22 11:33N 18°28' W 066°07'7 7.5
2016-Jun-22 10:33N 18°33' W 066°01'6210.2
2016-Jun-22 04:32N 18°13' W 065°00'1817.2
2016-Jun-22 03:30N 18°09' W 064°42'6917.3
2016-Jun-21 23:32N 18°03' W 063°30'1616.8
2016-Jun-21 22:33N 18°01' W 063°13'9 9.1
2016-Jun-21 21:32N 18°01' W 063°03'0 0.0
2016-Jun-21 20:26N 18°01' W 063°03'0 0.0
2016-Jun-21 19:25N 18°01' W 063°03'0 0.0
2016-Jun-21 18:23N 18°01' W 063°03'0 0.0
2016-Jun-21 17:26N 18°01' W 063°03'0 0.0
2016-Jun-21 14:29N 18°01' W 063°03'0 0.0
2016-Jun-21 13:32N 18°01' W 063°03'0 0.0
2016-Jun-21 12:30N 18°01' W 063°03'9 8.0
2016-Jun-21 11:24N 18°02' W 063°12'1416.2
2016-Jun-21 10:33N 18°10' W 063°24'  
Track history (hours):
 
Tides and Currents Weather Stations Pressure Air Temp Water Temp Dewpoint Dewpoint Depression Visibility Wind Speed Wind Dir Waves Ship Positions

MSC Divina

Last reported at 2016-Jun-30 00:03 UTC. Time now 2016-Jun-30 17:48 UTC.
Position N 20°43' W 086°51'.

Length 333 m; draft 8.6 m.

Type: Passenger vessel. MMSI: 373178000.

Date/timePositionNaut miles runAvg speedWind from/ knotsBaromVisibWave heightAir tempDewpointWater temp
2016-Jun-30 00:03N 20°43' W 086°51'1020.5
2016-Jun-29 23:33N 20°35' W 086°57'4 4.0
2016-Jun-29 22:32N 20°31' W 086°57'0 0.0
2016-Jun-29 21:29N 20°31' W 086°57'0 0.0
2016-Jun-29 20:32N 20°31' W 086°57'0 0.0
2016-Jun-29 19:32N 20°31' W 086°57'0 0.0
2016-Jun-29 18:32N 20°31' W 086°57'0 0.0
2016-Jun-29 17:32N 20°31' W 086°57'0 0.0
2016-Jun-29 16:32N 20°31' W 086°57'0 0.0
2016-Jun-29 15:32N 20°31' W 086°57'0 0.0
2016-Jun-29 14:33N 20°31' W 086°57'9 8.6
2016-Jun-29 13:34N 20°38' W 086°53'  
2016-Jun-26 00:26N 25°39' W 079°60'910.3
2016-Jun-25 23:33N 25°45' W 080°07'4 3.5
2016-Jun-25 22:30N 25°47' W 080°10'0 0.0
2016-Jun-25 21:30N 25°47' W 080°10'0 0.0
2016-Jun-25 20:27N 25°47' W 080°10'0 0.0
2016-Jun-25 19:30N 25°47' W 080°10'0 0.0
2016-Jun-25 18:33N 25°47' W 080°10'0 0.0
2016-Jun-25 17:30N 25°47' W 080°10'0 0.0
2016-Jun-25 13:32N 25°47' W 080°10'0 0.0
2016-Jun-25 12:08N 25°47' W 080°10'0 0.5
2016-Jun-25 11:33N 25°47' W 080°11'7 7.3
2016-Jun-25 10:33N 25°47' W 080°03'1212.4
2016-Jun-25 09:33N 25°52' W 079°50'1211.8
2016-Jun-25 08:33N 25°58' W 079°39'1818.2
2016-Jun-25 07:33N 26°06' W 079°21'  
2016-Jun-22 21:20N 18°36' W 066°15'1114.6
2016-Jun-22 20:33N 18°27' W 066°07'0 0.4
2016-Jun-22 19:32N 18°28' W 066°07'0 0.0
2016-Jun-22 18:31N 18°28' W 066°07'0 0.0
2016-Jun-22 17:30N 18°28' W 066°07'0 0.0
2016-Jun-22 16:33N 18°28' W 066°07'0 0.0
2016-Jun-22 15:27N 18°28' W 066°07'0 0.0
2016-Jun-22 14:32N 18°28' W 066°07'0 0.0
2016-Jun-22 13:29N 18°28' W 066°07'0 0.0
2016-Jun-22 12:32N 18°28' W 066°07'0 0.0
2016-Jun-22 11:33N 18°28' W 066°07'7 7.5
2016-Jun-22 10:33N 18°33' W 066°01'6210.2
2016-Jun-22 04:32N 18°13' W 065°00'1817.2
2016-Jun-22 03:30N 18°09' W 064°42'6917.3
2016-Jun-21 23:32N 18°03' W 063°30'1616.8
2016-Jun-21 22:33N 18°01' W 063°13'9 9.1
2016-Jun-21 21:32N 18°01' W 063°03'0 0.0
2016-Jun-21 20:26N 18°01' W 063°03'0 0.0
2016-Jun-21 19:25N 18°01' W 063°03'0 0.0
2016-Jun-21 18:23N 18°01' W 063°03'0 0.0
2016-Jun-21 17:26N 18°01' W 063°03'0 0.0
2016-Jun-21 14:29N 18°01' W 063°03'0 0.0
2016-Jun-21 13:32N 18°01' W 063°03'0 0.0
2016-Jun-21 12:30N 18°01' W 063°03'9 8.0
2016-Jun-21 11:24N 18°02' W 063°12'1416.2
2016-Jun-21 10:33N 18°10' W 063°24'  

Dump ship's entire track history